Sattler, Texas
Current Conditions -  °F | °C
As of 7:51 AM on Monday 24 Nov 2014 (Local Time) from KBAZ Reporting Station
Clear Clear  
Wind Chill: 52°   Ceiling: Unl
Heat Index: 52°   Visibility: 10mi
Dew Point: 36°   Wind: 3mph
Humidity: 54%   Direction: 350°N
Pressure: 30.03"   Gusts: NA
Location:  29.8812°N, 98.2387°W
Report Text: KBAZ 241351Z 35003KT 10SM CLR 11/02 A3003 RMK AO2 SLP168 T01110022 $
Loading
Personal Weather Stations






























Interactive Weather Map New forecast layout! Learn more

10-Day Weather Forecast

Advertisements
Track Severe Weather on mobile